createdAt,value
2022-11-01T00:02:18.270Z,3.15
2022-11-01T00:04:46.093Z,2.95
2022-11-01T00:07:13.972Z,3.78
2022-11-01T00:09:41.794Z,3.05
2022-11-01T00:12:10.927Z,3.30
2022-11-01T00:14:38.726Z,3.92
2022-11-01T00:17:06.597Z,3.90
2022-11-01T00:19:34.485Z,3.13
2022-11-01T00:22:02.303Z,3.08
2022-11-01T00:24:31.490Z,3.33
2022-11-01T00:26:59.720Z,3.40
2022-11-01T00:29:28.862Z,3.65
2022-11-01T00:31:56.741Z,3.35
2022-11-01T00:34:24.641Z,3.30
2022-11-01T00:36:52.401Z,3.70
2022-11-01T00:39:20.395Z,3.13
2022-11-01T00:41:48.122Z,3.22
2022-11-01T00:44:15.911Z,3.28
2022-11-01T00:46:45.053Z,3.58
2022-11-01T00:49:12.921Z,3.35
2022-11-01T00:51:40.881Z,3.25
2022-11-01T00:54:08.749Z,3.38
2022-11-01T00:56:36.535Z,3.35
2022-11-01T00:59:04.827Z,3.30
2022-11-01T01:01:33.427Z,3.28
2022-11-01T01:04:02.627Z,3.60
2022-11-01T01:06:30.483Z,3.55
2022-11-01T01:09:00.370Z,3.13
2022-11-01T01:11:28.215Z,3.17
2022-11-01T01:13:55.986Z,3.40
2022-11-01T01:16:24.076Z,3.35
2022-11-01T01:18:52.532Z,3.45
2022-11-01T01:21:21.683Z,3.70
2022-11-01T01:23:51.400Z,3.42
2022-11-01T01:26:19.148Z,3.45
2022-11-01T01:28:47.110Z,3.13
2022-11-01T01:31:15.490Z,3.25
2022-11-01T01:33:43.242Z,3.13
2022-11-01T01:36:11.758Z,3.00
2022-11-01T01:38:40.897Z,3.20
2022-11-01T01:41:25.987Z,2.65
2022-11-01T01:43:53.974Z,3.25
2022-11-01T01:46:22.003Z,3.13
2022-11-01T01:48:54.977Z,3.40
2022-11-01T01:51:27.322Z,2.70
2022-11-01T01:53:58.243Z,3.00
2022-11-01T01:56:31.927Z,3.38
2022-11-01T01:59:04.902Z,3.00
2022-11-01T02:01:35.246Z,3.03
2022-11-01T02:04:04.532Z,2.95
2022-11-01T02:06:34.503Z,3.05
2022-11-01T02:09:06.190Z,3.60
2022-11-01T02:11:34.144Z,3.22
2022-11-01T02:14:02.809Z,3.13
2022-11-01T02:16:53.787Z,3.25
2022-11-01T02:19:52.465Z,2.88
2022-11-01T02:22:31.617Z,3.17
2022-11-01T02:25:25.487Z,3.05
2022-11-01T02:28:01.052Z,2.80
2022-11-01T02:30:39.962Z,2.90
2022-11-01T02:33:18.086Z,3.03
2022-11-01T02:35:57.082Z,2.95
2022-11-01T02:38:29.693Z,2.97
2022-11-01T02:41:08.505Z,2.92
2022-11-01T02:43:45.428Z,3.00
2022-11-01T02:46:30.909Z,3.20
2022-11-01T02:49:00.430Z,2.75
2022-11-01T02:51:29.818Z,2.70
2022-11-01T02:54:01.431Z,3.05
2022-11-01T02:56:29.938Z,2.88
2022-11-01T02:58:58.882Z,3.33
2022-11-01T03:01:30.908Z,2.85
2022-11-01T03:04:01.531Z,2.95
2022-11-01T03:06:35.866Z,2.85
2022-11-01T03:09:08.483Z,2.90
2022-11-01T03:11:45.152Z,2.80
2022-11-01T03:14:21.168Z,2.78
2022-11-01T03:16:56.944Z,2.65
2022-11-01T03:19:38.642Z,2.88
2022-11-01T03:22:12.015Z,2.95
2022-11-01T03:24:47.051Z,2.50
2022-11-01T03:27:20.995Z,2.83
2022-11-01T03:29:56.941Z,2.92
2022-11-01T03:32:25.967Z,2.45
2022-11-01T03:34:56.105Z,2.55
2022-11-01T03:37:25.120Z,2.42
2022-11-01T03:39:55.368Z,2.50
2022-11-01T03:42:25.036Z,2.40
2022-11-01T03:44:59.291Z,2.60
2022-11-01T03:47:27.431Z,2.53
2022-11-01T03:50:19.828Z,2.42
2022-11-01T03:52:48.243Z,2.33
2022-11-01T03:55:19.910Z,2.55
2022-11-01T03:57:47.934Z,2.28
2022-11-01T04:00:17.520Z,2.20
2022-11-01T04:02:45.486Z,2.42
2022-11-01T04:05:13.603Z,2.13
2022-11-01T04:07:43.613Z,2.13
2022-11-01T04:10:11.913Z,2.13
2022-11-01T04:12:40.246Z,2.22
2022-11-01T04:15:26.291Z,2.30
2022-11-01T04:18:21.511Z,1.92
2022-11-01T04:20:49.840Z,1.83
2022-11-01T04:23:19.455Z,2.10
2022-11-01T04:25:47.818Z,1.88
2022-11-01T04:28:15.674Z,2.00
2022-11-01T04:30:43.919Z,2.40
2022-11-01T04:33:11.965Z,1.85
2022-11-01T04:35:39.789Z,2.20
2022-11-01T04:38:07.803Z,2.05
2022-11-01T04:40:37.018Z,2.13
2022-11-01T04:43:05.379Z,2.13
2022-11-01T04:45:33.214Z,1.90
2022-11-01T04:48:05.698Z,1.90
2022-11-01T04:50:34.048Z,1.95
2022-11-01T04:53:03.006Z,2.40
2022-11-01T04:55:31.213Z,2.08
2022-11-01T04:58:00.339Z,2.10
2022-11-01T05:00:28.123Z,2.08
2022-11-01T05:03:02.419Z,2.00
2022-11-01T05:05:30.874Z,2.20
2022-11-01T05:10:37.311Z,1.70
2022-11-01T05:13:07.156Z,1.90
2022-11-01T05:15:40.059Z,2.08
2022-11-01T05:18:11.759Z,2.20
2022-11-01T05:20:39.520Z,1.90
2022-11-01T05:23:07.654Z,1.80
2022-11-01T05:25:38.166Z,1.77
2022-11-01T05:28:10.132Z,2.22
2022-11-01T05:30:38.905Z,2.38
2022-11-01T05:33:08.058Z,1.92
2022-11-01T05:35:37.094Z,1.83
2022-11-01T05:38:05.721Z,2.20
2022-11-01T05:40:34.009Z,2.20
2022-11-01T05:43:02.025Z,1.95
2022-11-01T05:45:31.435Z,1.85
2022-11-01T05:48:03.376Z,1.92
2022-11-01T05:50:31.782Z,1.90
2022-11-01T05:53:08.140Z,2.00
2022-11-01T05:55:36.119Z,1.88
2022-11-01T05:58:04.325Z,1.85
2022-11-01T06:00:34.064Z,1.50
2022-11-01T06:03:02.286Z,1.60
2022-11-01T06:05:31.487Z,1.73
2022-11-01T06:08:01.832Z,1.40
2022-11-01T06:10:29.699Z,1.42
2022-11-01T06:12:57.709Z,1.42
2022-11-01T06:15:25.795Z,1.50
2022-11-01T06:17:58.479Z,1.30
2022-11-01T06:20:26.695Z,1.48
2022-11-01T06:22:54.452Z,1.48
2022-11-01T06:25:22.533Z,1.30
2022-11-01T06:27:50.467Z,1.10
2022-11-01T06:30:18.657Z,1.00
2022-11-01T06:32:46.417Z,1.00
2022-11-01T06:35:15.771Z,0.85
2022-11-01T06:37:43.557Z,1.00
2022-11-01T06:40:13.078Z,0.90
2022-11-01T06:42:45.537Z,0.90
2022-11-01T06:45:14.555Z,1.02
2022-11-01T06:47:47.393Z,0.80
2022-11-01T06:50:17.000Z,0.68
2022-11-01T06:52:44.765Z,1.00
2022-11-01T06:55:12.637Z,0.80
2022-11-01T06:57:40.475Z,0.77
2022-11-01T07:00:10.170Z,0.73
2022-11-01T07:02:38.176Z,0.80
2022-11-01T07:05:06.883Z,0.70
2022-11-01T07:07:35.986Z,0.80
2022-11-01T07:10:03.960Z,0.85
2022-11-01T07:12:31.684Z,1.00
2022-11-01T07:14:59.502Z,0.75
2022-11-01T07:17:27.836Z,0.80
2022-11-01T07:19:55.648Z,0.80
2022-11-01T07:22:23.417Z,0.80
2022-11-01T07:24:52.606Z,0.70
2022-11-01T07:27:20.763Z,0.60
2022-11-01T07:29:48.700Z,0.55
2022-11-01T07:32:16.467Z,0.70
2022-11-01T07:34:44.246Z,0.75
2022-11-01T07:37:12.016Z,0.70
2022-11-01T07:39:40.481Z,0.80
2022-11-01T07:42:09.724Z,0.82
2022-11-01T07:44:37.869Z,0.93
2022-11-01T07:47:05.813Z,0.70
2022-11-01T07:49:33.601Z,0.60
2022-11-01T07:52:02.956Z,0.90
2022-11-01T07:54:31.064Z,0.80
2022-11-01T07:56:58.875Z,0.60
2022-11-01T07:59:28.058Z,0.80
2022-11-01T08:01:55.880Z,0.65
2022-11-01T08:04:24.513Z,0.60
2022-11-01T08:06:52.549Z,0.80
2022-11-01T08:09:21.938Z,0.90
2022-11-01T08:11:49.861Z,0.73
2022-11-01T08:14:17.690Z,0.70
2022-11-01T08:16:49.774Z,0.80
2022-11-01T08:19:17.591Z,0.77
2022-11-01T08:21:45.602Z,0.98
2022-11-01T08:24:13.676Z,0.70
2022-11-01T08:26:41.494Z,0.80
2022-11-01T08:29:09.360Z,0.90
2022-11-01T08:31:40.373Z,0.85
2022-11-01T08:34:14.488Z,1.17
2022-11-01T08:36:44.643Z,0.90
2022-11-01T08:39:12.696Z,1.10
2022-11-01T08:41:40.543Z,1.00
2022-11-01T08:44:08.552Z,1.20
2022-11-01T08:46:36.574Z,0.80
2022-11-01T08:49:04.402Z,1.38
2022-11-01T08:51:33.542Z,1.00
2022-11-01T08:54:01.335Z,1.08
2022-11-01T08:56:29.386Z,0.88
2022-11-01T08:58:57.872Z,0.90
2022-11-01T09:01:27.131Z,1.10
2022-11-01T09:03:56.961Z,0.90
2022-11-01T09:06:25.239Z,0.95
2022-11-01T09:08:54.732Z,1.10
2022-11-01T09:11:23.544Z,1.30
2022-11-01T09:13:52.053Z,1.05
2022-11-01T09:16:20.353Z,0.85
2022-11-01T09:18:48.291Z,0.93
2022-11-01T09:21:17.108Z,0.95
2022-11-01T09:23:46.023Z,1.13
2022-11-01T09:26:15.231Z,1.10
2022-11-01T09:28:43.223Z,1.15
2022-11-01T09:31:20.972Z,0.95
2022-11-01T09:33:49.426Z,0.90
2022-11-01T09:36:17.326Z,0.90
2022-11-01T09:38:45.080Z,1.30
2022-11-01T09:41:26.714Z,1.00
2022-11-01T09:43:55.951Z,1.30
2022-11-01T09:46:27.192Z,0.98
2022-11-01T09:48:56.457Z,1.02
2022-11-01T09:51:26.043Z,0.90
2022-11-01T09:53:56.885Z,1.10
2022-11-01T09:56:30.444Z,1.02
2022-11-01T09:59:06.775Z,0.80
2022-11-01T10:01:46.606Z,1.10
2022-11-01T10:04:49.690Z,1.20
2022-11-01T10:07:23.348Z,1.13
2022-11-01T10:10:00.405Z,0.98
2022-11-01T10:12:41.832Z,1.17
2022-11-01T10:15:27.299Z,0.80
2022-11-01T10:17:57.074Z,0.80
2022-11-01T10:20:29.605Z,0.93
2022-11-01T10:25:29.059Z,0.90
2022-11-01T10:28:05.658Z,0.80
2022-11-01T10:30:38.304Z,1.20
2022-11-01T10:33:24.149Z,1.10
2022-11-01T10:35:57.135Z,0.85
2022-11-01T10:41:27.394Z,1.00
2022-11-01T10:44:01.949Z,1.00
2022-11-01T10:46:35.130Z,1.05
2022-11-01T10:49:07.440Z,1.17
2022-11-01T10:51:36.859Z,1.23
2022-11-01T10:54:10.925Z,1.13
2022-11-01T10:56:45.998Z,1.13
2022-11-01T10:59:20.297Z,1.35
2022-11-01T11:01:50.642Z,1.08
2022-11-01T11:04:22.242Z,0.95
2022-11-01T11:06:50.354Z,1.10
2022-11-01T11:09:26.309Z,1.30
2022-11-01T11:11:58.634Z,1.30
2022-11-01T11:14:31.794Z,1.13
2022-11-01T11:17:01.170Z,1.25
2022-11-01T11:19:34.904Z,1.50
2022-11-01T11:22:06.548Z,1.15
2022-11-01T11:24:36.443Z,1.25
2022-11-01T11:27:13.209Z,1.50
2022-11-01T11:29:49.169Z,1.08
2022-11-01T11:32:19.979Z,1.10
2022-11-01T11:34:56.035Z,1.25
2022-11-01T11:37:26.280Z,1.40
2022-11-01T11:40:19.645Z,1.55
2022-11-01T11:42:49.665Z,1.10
2022-11-01T11:45:28.504Z,0.90
2022-11-01T11:47:57.564Z,1.10
2022-11-01T11:50:32.789Z,1.17
2022-11-01T11:53:09.824Z,0.98
2022-11-01T11:55:43.633Z,0.93
2022-11-01T11:58:26.956Z,1.20
2022-11-01T12:01:01.462Z,1.02
2022-11-01T12:03:29.693Z,1.30
2022-11-01T12:06:01.348Z,1.33
2022-11-01T12:08:48.547Z,1.10
2022-11-01T12:11:17.244Z,1.13
2022-11-01T12:13:46.304Z,1.10
2022-11-01T12:16:21.445Z,1.58
2022-11-01T12:18:52.208Z,1.23
2022-11-01T12:21:23.823Z,1.30
2022-11-01T12:23:54.963Z,1.25
2022-11-01T12:26:25.048Z,1.20
2022-11-01T12:29:00.034Z,1.17
2022-11-01T12:31:31.635Z,1.23
2022-11-01T12:34:05.273Z,1.00
2022-11-01T12:36:42.865Z,1.10
2022-11-01T12:39:26.740Z,1.05
2022-11-01T12:41:59.543Z,1.17
2022-11-01T12:44:36.397Z,1.10
2022-11-01T12:47:13.287Z,1.20
2022-11-01T12:49:48.799Z,1.05
2022-11-01T12:52:25.174Z,1.00
2022-11-01T12:55:04.124Z,1.17
2022-11-01T12:57:33.386Z,1.13
2022-11-01T13:00:02.519Z,1.40
2022-11-01T13:02:58.924Z,1.20
2022-11-01T13:05:35.428Z,0.93
2022-11-01T13:08:14.906Z,1.10
2022-11-01T13:10:46.963Z,1.15
2022-11-01T13:13:22.650Z,1.10
2022-11-01T13:16:01.189Z,1.02
2022-11-01T13:18:40.546Z,0.85
2022-11-01T13:21:15.746Z,1.15
2022-11-01T13:23:50.243Z,1.02
2022-11-01T13:26:24.250Z,1.42
2022-11-01T13:29:01.385Z,1.05
2022-11-01T13:31:42.062Z,1.00
2022-11-01T13:34:27.607Z,0.90
2022-11-01T13:37:04.326Z,1.13
2022-11-01T13:39:43.887Z,0.90
2022-11-01T13:42:16.094Z,1.10
2022-11-01T13:44:47.971Z,0.80
2022-11-01T13:47:32.649Z,1.10
2022-11-01T13:50:23.598Z,1.05
2022-11-01T13:52:59.230Z,1.00
2022-11-01T13:55:36.349Z,1.05
2022-11-01T13:58:06.877Z,1.00
2022-11-01T14:00:46.008Z,1.10
2022-11-01T14:03:29.728Z,0.80
2022-11-01T14:06:36.656Z,0.90
2022-11-01T14:09:29.538Z,1.10
2022-11-01T14:11:59.208Z,0.80
2022-11-01T14:14:53.155Z,1.17
2022-11-01T14:18:01.450Z,1.20
2022-11-01T14:20:46.857Z,1.23
2022-11-01T14:23:54.268Z,1.50
2022-11-01T14:26:48.644Z,1.20
2022-11-01T14:29:17.053Z,1.10
2022-11-01T14:31:47.748Z,1.38
2022-11-01T14:34:32.817Z,1.20
2022-11-01T14:37:10.799Z,1.38
2022-11-01T14:39:42.263Z,1.20
2022-11-01T14:42:15.566Z,1.48
2022-11-01T14:44:50.860Z,1.42
2022-11-01T14:47:29.083Z,1.00
2022-11-01T14:50:02.352Z,1.20
2022-11-01T14:52:36.423Z,1.33
2022-11-01T14:55:13.472Z,1.20
2022-11-01T14:57:45.335Z,1.15
2022-11-01T15:00:29.037Z,1.20
2022-11-01T15:05:27.785Z,0.98
2022-11-01T15:07:57.514Z,1.20
2022-11-01T15:10:25.611Z,1.00
2022-11-01T15:12:58.757Z,1.10
2022-11-01T15:15:29.858Z,1.05
2022-11-01T15:18:00.470Z,1.10
2022-11-01T15:20:33.062Z,0.90
2022-11-01T15:23:04.098Z,1.15
2022-11-01T15:25:32.291Z,1.55
2022-11-01T15:28:01.548Z,1.60
2022-11-01T15:30:32.101Z,1.30
2022-11-01T15:33:17.121Z,1.45
2022-11-01T15:35:53.985Z,1.13
2022-11-01T15:38:22.189Z,1.25
2022-11-01T15:40:52.217Z,0.93
2022-11-01T15:43:24.225Z,0.93
2022-11-01T15:45:54.912Z,1.20
2022-11-01T15:48:29.165Z,1.30
2022-11-01T15:51:00.687Z,1.10
2022-11-01T15:53:32.284Z,1.30
2022-11-01T15:56:06.605Z,1.38
2022-11-01T15:58:40.667Z,1.40
2022-11-01T16:01:13.840Z,1.40
2022-11-01T16:03:45.201Z,1.23
2022-11-01T16:06:23.000Z,1.50
2022-11-01T16:08:57.076Z,1.30
2022-11-01T16:11:27.192Z,1.00
2022-11-01T16:14:01.311Z,1.20
2022-11-01T16:16:29.440Z,1.20
2022-11-01T16:18:57.415Z,1.10
2022-11-01T16:21:30.497Z,0.85
2022-11-01T16:24:05.387Z,0.90
2022-11-01T16:26:52.958Z,1.20
2022-11-01T16:29:38.675Z,0.85
2022-11-01T16:32:10.026Z,0.98
2022-11-01T16:34:38.211Z,1.10
2022-11-01T16:37:19.415Z,0.95
2022-11-01T16:39:48.261Z,1.00
2022-11-01T16:42:17.134Z,1.02
2022-11-01T16:44:47.381Z,2.00
2022-11-01T16:47:17.391Z,1.60
2022-11-01T16:49:50.212Z,1.50
2022-11-01T16:52:18.920Z,1.23
2022-11-01T16:54:49.492Z,1.38
2022-11-01T16:57:24.213Z,1.20
2022-11-01T16:59:54.621Z,1.00
2022-11-01T17:02:26.194Z,1.38
2022-11-01T17:04:58.500Z,1.00
2022-11-01T17:07:27.644Z,1.30
2022-11-01T17:09:55.682Z,1.00
2022-11-01T17:12:23.599Z,1.20
2022-11-01T17:14:53.636Z,1.05
2022-11-01T17:17:24.574Z,1.10
2022-11-01T17:19:59.998Z,1.10
2022-11-01T17:22:34.728Z,1.20
2022-11-01T17:25:03.493Z,0.98
2022-11-01T17:27:31.725Z,1.20
2022-11-01T17:30:01.228Z,1.38
2022-11-01T17:32:29.257Z,1.60
2022-11-01T17:34:58.144Z,1.40
2022-11-01T17:37:31.775Z,1.40
2022-11-01T17:40:00.028Z,1.40
2022-11-01T17:42:28.345Z,1.33
2022-11-01T17:44:56.463Z,1.20
2022-11-01T17:47:26.307Z,1.27
2022-11-01T17:49:54.656Z,1.42
2022-11-01T17:52:22.838Z,1.15
2022-11-01T17:54:53.483Z,1.17
2022-11-01T17:57:21.556Z,1.52
2022-11-01T17:59:49.512Z,1.15
2022-11-01T18:02:18.004Z,1.27
2022-11-01T18:04:47.296Z,1.13
2022-11-01T18:07:18.585Z,1.20
2022-11-01T18:09:46.596Z,1.30
2022-11-01T18:12:20.235Z,1.10
2022-11-01T18:14:56.430Z,1.02
2022-11-01T18:17:46.718Z,1.45
2022-11-01T18:20:36.393Z,1.40
2022-11-01T18:23:09.541Z,1.88
2022-11-01T18:25:41.309Z,1.50
2022-11-01T18:28:13.811Z,1.20
2022-11-01T18:30:43.531Z,1.40
2022-11-01T18:33:20.624Z,1.20
2022-11-01T18:35:55.947Z,1.27
2022-11-01T18:38:30.219Z,1.20
2022-11-01T18:41:00.294Z,1.10
2022-11-01T18:43:32.067Z,1.30
2022-11-01T18:46:23.839Z,1.08
2022-11-01T18:48:51.724Z,1.10
2022-11-01T18:51:26.655Z,1.25
2022-11-01T18:54:01.986Z,1.20
2022-11-01T18:56:30.582Z,1.10
2022-11-01T18:59:00.372Z,1.25
2022-11-01T19:01:32.331Z,1.10
2022-11-01T19:04:03.068Z,1.08
2022-11-01T19:06:33.488Z,1.35
2022-11-01T19:09:13.967Z,1.30
2022-11-01T19:11:41.836Z,1.58
2022-11-01T19:14:16.621Z,1.40
2022-11-01T19:16:45.567Z,1.55
2022-11-01T19:19:17.261Z,1.30
2022-11-01T19:21:46.509Z,1.50
2022-11-01T19:24:30.073Z,1.23
2022-11-01T19:26:59.124Z,1.20
2022-11-01T19:29:29.568Z,1.40
2022-11-01T19:31:59.043Z,1.27
2022-11-01T19:34:30.467Z,1.25
2022-11-01T19:37:02.197Z,1.35
2022-11-01T19:39:33.550Z,1.60
2022-11-01T19:42:05.111Z,1.30
2022-11-01T19:44:33.537Z,1.30
2022-11-01T19:47:29.851Z,1.27
2022-11-01T19:49:57.746Z,1.40
2022-11-01T19:52:37.326Z,1.40
2022-11-01T19:55:38.350Z,1.30
2022-11-01T19:58:34.684Z,1.30
2022-11-01T20:01:36.525Z,1.30
2022-11-01T20:04:10.984Z,1.30
2022-11-01T20:06:46.595Z,1.83
2022-11-01T20:09:20.607Z,1.38
2022-11-01T20:11:48.624Z,1.33
2022-11-01T20:14:16.472Z,1.38
2022-11-01T20:16:44.492Z,1.70
2022-11-01T20:19:16.395Z,1.85
2022-11-01T20:21:45.811Z,1.25
2022-11-01T20:24:14.021Z,1.52
2022-11-01T20:26:43.360Z,1.50
2022-11-01T20:29:11.754Z,1.55
2022-11-01T20:31:40.771Z,1.40
2022-11-01T20:34:09.328Z,1.63
2022-11-01T20:36:38.259Z,1.60
2022-11-01T20:39:09.083Z,1.40
2022-11-01T20:41:39.740Z,1.52
2022-11-01T20:44:08.935Z,1.67
2022-11-01T20:46:36.884Z,1.30
2022-11-01T20:49:04.771Z,1.80
2022-11-01T20:51:32.585Z,1.55
2022-11-01T20:54:00.332Z,1.40
2022-11-01T20:56:28.365Z,1.67
2022-11-01T20:58:56.212Z,1.58
2022-11-01T21:01:25.898Z,1.38
2022-11-01T21:03:54.215Z,1.60
2022-11-01T21:06:23.363Z,1.50
2022-11-01T21:08:51.152Z,1.40
2022-11-01T21:11:23.462Z,1.20
2022-11-01T21:13:52.394Z,1.40
2022-11-01T21:16:29.356Z,1.60
2022-11-01T21:19:02.702Z,1.40
2022-11-01T21:21:39.188Z,1.90
2022-11-01T21:24:32.311Z,1.30
2022-11-01T21:27:08.942Z,1.73
2022-11-01T21:29:39.642Z,1.60
2022-11-01T21:32:27.057Z,1.60
2022-11-01T21:34:55.109Z,1.48
2022-11-01T21:37:23.821Z,1.70
2022-11-01T21:39:58.994Z,1.50
2022-11-01T21:42:33.625Z,2.05
2022-11-01T21:45:16.420Z,1.50
2022-11-01T21:47:45.885Z,1.25
2022-11-01T21:50:13.785Z,2.22
2022-11-01T21:52:41.727Z,1.50
2022-11-01T21:55:09.780Z,1.83
2022-11-01T21:57:37.683Z,1.58
2022-11-01T22:00:06.546Z,1.80
2022-11-01T22:02:34.618Z,1.73
2022-11-01T22:05:04.340Z,1.38
2022-11-01T22:07:32.267Z,1.50
2022-11-01T22:10:00.032Z,1.50
2022-11-01T22:12:27.807Z,2.13
2022-11-01T22:14:55.612Z,1.63
2022-11-01T22:17:23.846Z,1.52
2022-11-01T22:19:51.645Z,1.80
2022-11-01T22:22:20.922Z,1.30
2022-11-01T22:24:48.784Z,2.05
2022-11-01T22:27:16.678Z,2.35
2022-11-01T22:29:44.472Z,1.92
2022-11-01T22:32:12.298Z,1.50
2022-11-01T22:34:40.056Z,1.55
2022-11-01T22:37:13.647Z,1.38
2022-11-01T22:39:43.309Z,1.63
2022-11-01T22:42:12.487Z,2.00
2022-11-01T22:44:41.585Z,1.50
2022-11-01T22:47:22.280Z,1.33
2022-11-01T22:49:54.060Z,1.60
2022-11-01T22:52:31.152Z,1.38
2022-11-01T22:55:05.317Z,1.35
2022-11-01T22:57:36.030Z,1.38
2022-11-01T23:00:24.622Z,1.63
2022-11-01T23:02:56.740Z,1.58
2022-11-01T23:05:25.653Z,1.20
2022-11-01T23:07:55.850Z,1.67
2022-11-01T23:10:28.843Z,1.52
2022-11-01T23:13:34.197Z,1.73
2022-11-01T23:16:04.855Z,1.92
2022-11-01T23:18:37.546Z,1.58
2022-11-01T23:23:36.992Z,1.42
2022-11-01T23:26:06.414Z,1.35
2022-11-01T23:28:35.383Z,1.48
2022-11-01T23:31:05.687Z,1.30
2022-11-01T23:33:37.367Z,1.42
2022-11-01T23:36:05.967Z,1.30
2022-11-01T23:38:37.261Z,1.38
2022-11-01T23:41:06.914Z,1.20
2022-11-01T23:43:37.787Z,1.60
2022-11-01T23:46:05.868Z,1.30
2022-11-01T23:48:34.041Z,1.10
2022-11-01T23:51:01.900Z,1.30
2022-11-01T23:53:34.933Z,1.27
2022-11-01T23:56:07.933Z,1.40
2022-11-01T23:58:38.302Z,1.40
